sensor_id;sensor_type;location;lat;lon;timestamp;pressure;altitude;pressure_sealevel;temperature;humidity
36092;BME280;22147;52.388;13.390;2023-02-28T00:00:51;102545.66;;;-1.20;100.00
36092;BME280;22147;52.388;13.390;2023-02-28T00:03:21;102541.66;;;-1.18;100.00
36092;BME280;22147;52.388;13.390;2023-02-28T00:05:51;102546.94;;;-1.16;100.00
36092;BME280;22147;52.388;13.390;2023-02-28T00:08:21;102546.69;;;-1.15;100.00
36092;BME280;22147;52.388;13.390;2023-02-28T00:10:51;102535.59;;;-1.13;100.00
36092;BME280;22147;52.388;13.390;2023-02-28T00:13:21;102544.03;;;-1.01;100.00
36092;BME280;22147;52.388;13.390;2023-02-28T00:16:22;102548.63;;;-1.02;100.00
36092;BME280;22147;52.388;13.390;2023-02-28T00:18:51;102549.47;;;-1.01;100.00
36092;BME280;22147;52.388;13.390;2023-02-28T00:21:20;102550.72;;;-1.04;100.00
36092;BME280;22147;52.388;13.390;2023-02-28T00:23:48;102549.66;;;-1.10;100.00
36092;BME280;22147;52.388;13.390;2023-02-28T00:26:17;102549.88;;;-1.11;100.00
36092;BME280;22147;52.388;13.390;2023-02-28T00:28:52;102539.59;;;-1.03;100.00
36092;BME280;22147;52.388;13.390;2023-02-28T00:31:22;102545.91;;;-0.95;100.00
36092;BME280;22147;52.388;13.390;2023-02-28T00:33:53;102542.13;;;-0.94;100.00
36092;BME280;22147;52.388;13.390;2023-02-28T00:36:23;102544.25;;;-0.90;100.00
36092;BME280;22147;52.388;13.390;2023-02-28T00:38:53;102542.97;;;-0.87;100.00
36092;BME280;22147;52.388;13.390;2023-02-28T00:41:23;102547.16;;;-0.91;100.00
36092;BME280;22147;52.388;13.390;2023-02-28T00:43:53;102542.97;;;-0.87;100.00
36092;BME280;22147;52.388;13.390;2023-02-28T00:46:23;102542.78;;;-0.92;100.00
36092;BME280;22147;52.388;13.390;2023-02-28T00:48:53;102550.72;;;-0.97;100.00
36092;BME280;22147;52.388;13.390;2023-02-28T00:51:24;102541.69;;;-0.98;100.00
36092;BME280;22147;52.388;13.390;2023-02-28T00:53:54;102553.88;;;-1.00;100.00
36092;BME280;22147;52.388;13.390;2023-02-28T00:56:24;102553.44;;;-1.04;100.00
36092;BME280;22147;52.388;13.390;2023-02-28T00:58:54;102554.88;;;-1.08;100.00
36092;BME280;22147;52.388;13.390;2023-02-28T01:01:24;102549.66;;;-1.10;100.00
36092;BME280;22147;52.388;13.390;2023-02-28T01:03:54;102555.31;;;-1.11;100.00
36092;BME280;22147;52.388;13.390;2023-02-28T01:06:24;102549.03;;;-1.12;100.00
36092;BME280;22147;52.388;13.390;2023-02-28T01:08:52;102548.16;;;-1.12;100.00
36092;BME280;22147;52.388;13.390;2023-02-28T01:11:21;102550.25;;;-1.14;100.00
36092;BME280;22147;52.388;13.390;2023-02-28T01:13:49;102549.88;;;-1.11;100.00
36092;BME280;22147;52.388;13.390;2023-02-28T01:16:18;102547.13;;;-1.11;100.00
36092;BME280;22147;52.388;13.390;2023-02-28T01:18:46;102544.59;;;-1.13;100.00
36092;BME280;22147;52.388;13.390;2023-02-28T01:21:19;102539.16;;;-1.13;100.00
36092;BME280;22147;52.388;13.390;2023-02-28T01:23:50;102542.72;;;-1.12;100.00
36092;BME280;22147;52.388;13.390;2023-02-28T01:26:23;102541.25;;;-1.08;100.00
36092;BME280;22147;52.388;13.390;2023-02-28T01:28:53;102543.56;;;-1.12;100.00
36092;BME280;22147;52.388;13.390;2023-02-28T01:31:24;102542.06;;;-1.14;100.00
36092;BME280;22147;52.388;13.390;2023-02-28T01:33:55;102537.25;;;-1.19;100.00
36092;BME280;22147;52.388;13.390;2023-02-28T01:36:26;102539.34;;;-1.21;100.00
36092;BME280;22147;52.388;13.390;2023-02-28T01:38:56;102529.69;;;-1.24;100.00
36092;BME280;22147;52.388;13.390;2023-02-28T01:41:31;102524.66;;;-1.27;100.00
36092;BME280;22147;52.388;13.390;2023-02-28T01:47:34;102526.09;;;-1.37;100.00
36092;BME280;22147;52.388;13.390;2023-02-28T01:50:15;102527.53;;;-1.41;100.00
36092;BME280;22147;52.388;13.390;2023-02-28T01:52:51;102527.09;;;-1.45;100.00
36092;BME280;22147;52.388;13.390;2023-02-28T01:55:26;102528.34;;;-1.48;100.00
36092;BME280;22147;52.388;13.390;2023-02-28T01:58:02;102527.72;;;-1.50;100.00
36092;BME280;22147;52.388;13.390;2023-02-28T02:00:34;102536.28;;;-1.53;100.00
36092;BME280;22147;52.388;13.390;2023-02-28T02:03:11;102528.72;;;-1.57;100.00
36092;BME280;22147;52.388;13.390;2023-02-28T02:05:43;102522.63;;;-1.59;100.00
36092;BME280;22147;52.388;13.390;2023-02-28T02:08:25;102532.69;;;-1.60;100.00
36092;BME280;22147;52.388;13.390;2023-02-28T02:11:01;102530.16;;;-1.61;100.00
36092;BME280;22147;52.388;13.390;2023-02-28T02:14:06;102522.59;;;-1.66;100.00
36092;BME280;22147;52.388;13.390;2023-02-28T02:17:18;102535.38;;;-1.73;100.00
36092;BME280;22147;52.388;13.390;2023-02-28T02:36:37;102530.47;;;-2.19;100.00
36092;BME280;22147;52.388;13.390;2023-02-28T02:46:04;102517.72;;;-2.47;100.00
36092;BME280;22147;52.388;13.390;2023-02-28T02:48:42;102522.25;;;-2.54;100.00
36092;BME280;22147;52.388;13.390;2023-02-28T02:51:20;102526.16;;;-2.63;100.00
36092;BME280;22147;52.388;13.390;2023-02-28T02:54:04;102527.53;;;-2.74;100.00
36092;BME280;22147;52.388;13.390;2023-02-28T02:56:44;102527.84;;;-2.84;100.00
36092;BME280;22147;52.388;13.390;2023-02-28T02:59:22;102525.25;;;-2.92;100.00
36092;BME280;22147;52.388;13.390;2023-02-28T03:01:59;102518.09;;;-3.00;100.00
36092;BME280;22147;52.388;13.390;2023-02-28T03:04:48;102528.03;;;-3.07;100.00
36092;BME280;22147;52.388;13.390;2023-02-28T03:07:22;102526.31;;;-3.15;100.00
36092;BME280;22147;52.388;13.390;2023-02-28T03:09:55;102531.03;;;-3.23;100.00
36092;BME280;22147;52.388;13.390;2023-02-28T03:12:52;102527.19;;;-3.29;100.00
36092;BME280;22147;52.388;13.390;2023-02-28T03:19:21;102532.25;;;-3.41;100.00
36092;BME280;22147;52.388;13.390;2023-02-28T03:22:26;102541.00;;;-3.45;100.00
36092;BME280;22147;52.388;13.390;2023-02-28T03:31:21;102542.97;;;-3.54;100.00
36092;BME280;22147;52.388;13.390;2023-02-28T03:34:22;102545.88;;;-3.56;100.00
36092;BME280;22147;52.388;13.390;2023-02-28T03:37:05;102541.66;;;-3.58;100.00
36092;BME280;22147;52.388;13.390;2023-02-28T03:40:01;102546.28;;;-3.59;100.00
36092;BME280;22147;52.388;13.390;2023-02-28T03:42:41;102551.22;;;-3.62;100.00
36092;BME280;22147;52.388;13.390;2023-02-28T03:45:26;102545.13;;;-3.64;100.00
36092;BME280;22147;52.388;13.390;2023-02-28T03:48:44;102551.97;;;-3.69;100.00
36092;BME280;22147;52.388;13.390;2023-02-28T03:51:24;102550.88;;;-3.74;100.00
36092;BME280;22147;52.388;13.390;2023-02-28T03:54:08;102547.69;;;-3.78;100.00
36092;BME280;22147;52.388;13.390;2023-02-28T03:56:59;102544.50;;;-3.81;100.00
36092;BME280;22147;52.388;13.390;2023-02-28T03:59:47;102552.19;;;-3.85;100.00
36092;BME280;22147;52.388;13.390;2023-02-28T04:02:24;102546.66;;;-3.92;100.00
36092;BME280;22147;52.388;13.390;2023-02-28T04:04:54;102549.94;;;-3.96;100.00
36092;BME280;22147;52.388;13.390;2023-02-28T04:07:24;102549.66;;;-4.01;100.00
36092;BME280;22147;52.388;13.390;2023-02-28T04:10:00;102550.03;;;-4.04;100.00
36092;BME280;22147;52.388;13.390;2023-02-28T04:12:30;102547.03;;;-4.10;100.00
36092;BME280;22147;52.388;13.390;2023-02-28T04:15:00;102548.25;;;-4.12;100.00
36092;BME280;22147;52.388;13.390;2023-02-28T04:17:30;102556.56;;;-4.14;100.00
36092;BME280;22147;52.388;13.390;2023-02-28T04:20:00;102550.66;;;-4.17;100.00
36092;BME280;22147;52.388;13.390;2023-02-28T04:22:30;102554.59;;;-4.20;100.00
36092;BME280;22147;52.388;13.390;2023-02-28T04:25:00;102552.28;;;-4.23;100.00
36092;BME280;22147;52.388;13.390;2023-02-28T04:27:30;102556.38;;;-4.27;100.00
36092;BME280;22147;52.388;13.390;2023-02-28T04:30:01;102554.03;;;-4.30;100.00
36092;BME280;22147;52.388;13.390;2023-02-28T04:32:30;102551.69;;;-4.33;100.00
36092;BME280;22147;52.388;13.390;2023-02-28T04:35:00;102559.34;;;-4.37;100.00
36092;BME280;22147;52.388;13.390;2023-02-28T04:37:30;102566.16;;;-4.41;100.00
36092;BME280;22147;52.388;13.390;2023-02-28T04:40:05;102560.28;;;-4.44;100.00
36092;BME280;22147;52.388;13.390;2023-02-28T04:42:35;102563.16;;;-4.46;100.00
36092;BME280;22147;52.388;13.390;2023-02-28T04:45:06;102561.47;;;-4.47;100.00
36092;BME280;22147;52.388;13.390;2023-02-28T04:47:39;102562.69;;;-4.50;100.00
36092;BME280;22147;52.388;13.390;2023-02-28T04:50:10;102567.63;;;-4.53;100.00
36092;BME280;22147;52.388;13.390;2023-02-28T04:52:40;102568.84;;;-4.56;100.00
36092;BME280;22147;52.388;13.390;2023-02-28T04:55:10;102572.75;;;-4.58;100.00
36092;BME280;22147;52.388;13.390;2023-02-28T04:57:40;102572.09;;;-4.60;100.00
36092;BME280;22147;52.388;13.390;2023-02-28T05:00:12;102577.69;;;-4.62;100.00
36092;BME280;22147;52.388;13.390;2023-02-28T05:02:44;102578.06;;;-4.65;100.00
36092;BME280;22147;52.388;13.390;2023-02-28T05:05:14;102579.28;;;-4.67;100.00
36092;BME280;22147;52.388;13.390;2023-02-28T05:07:47;102574.22;;;-4.71;100.00
36092;BME280;22147;52.388;13.390;2023-02-28T05:10:17;102573.53;;;-4.73;100.00
36092;BME280;22147;52.388;13.390;2023-02-28T05:12:48;102576.63;;;-4.76;100.00
36092;BME280;22147;52.388;13.390;2023-02-28T05:15:18;102569.72;;;-4.78;100.00
36092;BME280;22147;52.388;13.390;2023-02-28T05:17:48;102581.56;;;-4.79;100.00
36092;BME280;22147;52.388;13.390;2023-02-28T05:20:18;102578.38;;;-4.83;100.00
36092;BME280;22147;52.388;13.390;2023-02-28T05:22:49;102585.84;;;-4.85;100.00
36092;BME280;22147;52.388;13.390;2023-02-28T05:25:21;102574.69;;;-4.90;100.00
36092;BME280;22147;52.388;13.390;2023-02-28T05:27:52;102582.16;;;-4.92;100.00
36092;BME280;22147;52.388;13.390;2023-02-28T05:30:22;102577.78;;;-4.93;100.00
36092;BME280;22147;52.388;13.390;2023-02-28T05:32:52;102580.84;;;-4.96;100.00
36092;BME280;22147;52.388;13.390;2023-02-28T05:35:22;102582.88;;;-4.98;100.00
36092;BME280;22147;52.388;13.390;2023-02-28T05:37:53;102586.63;;;-4.99;100.00
36092;BME280;22147;52.388;13.390;2023-02-28T05:40:23;102577.84;;;-5.01;100.00
36092;BME280;22147;52.388;13.390;2023-02-28T05:42:53;102578.00;;;-5.03;100.00
36092;BME280;22147;52.388;13.390;2023-02-28T05:45:23;102592.56;;;-5.04;100.00
36092;BME280;22147;52.388;13.390;2023-02-28T05:47:55;102588.19;;;-5.05;100.00
36092;BME280;22147;52.388;13.390;2023-02-28T05:50:25;102588.53;;;-5.08;100.00
36092;BME280;22147;52.388;13.390;2023-02-28T05:52:55;102592.94;;;-5.07;100.00
36092;BME280;22147;52.388;13.390;2023-02-28T05:55:25;102594.59;;;-5.06;100.00
36092;BME280;22147;52.388;13.390;2023-02-28T05:57:55;102599.03;;;-5.05;100.00
36092;BME280;22147;52.388;13.390;2023-02-28T06:00:26;102595.66;;;-5.07;100.00
36092;BME280;22147;52.388;13.390;2023-02-28T06:02:56;102603.78;;;-5.07;100.00
36092;BME280;22147;52.388;13.390;2023-02-28T06:05:29;102597.53;;;-5.07;100.00
36092;BME280;22147;52.388;13.390;2023-02-28T06:07:59;102595.81;;;-5.08;100.00
36092;BME280;22147;52.388;13.390;2023-02-28T06:10:28;102603.09;;;-5.09;100.00
36092;BME280;22147;52.388;13.390;2023-02-28T06:13:00;102606.47;;;-5.07;100.00
36092;BME280;22147;52.388;13.390;2023-02-28T06:15:32;102604.59;;;-5.06;100.00
36092;BME280;22147;52.388;13.390;2023-02-28T06:18:02;102605.44;;;-5.06;100.00
36092;BME280;22147;52.388;13.390;2023-02-28T06:20:32;102603.41;;;-5.04;100.00
36092;BME280;22147;52.388;13.390;2023-02-28T06:23:03;102610.53;;;-5.03;100.00
36092;BME280;22147;52.388;13.390;2023-02-28T06:25:33;102609.16;;;-4.99;100.00
36092;BME280;22147;52.388;13.390;2023-02-28T06:28:03;102613.19;;;-4.95;100.00
36092;BME280;22147;52.388;13.390;2023-02-28T06:30:33;102611.81;;;-4.91;100.00
36092;BME280;22147;52.388;13.390;2023-02-28T06:33:04;102621.06;;;-4.85;100.00
36092;BME280;22147;52.388;13.390;2023-02-28T06:35:34;102625.31;;;-4.82;100.00
36092;BME280;22147;52.388;13.390;2023-02-28T06:38:04;102624.78;;;-4.78;100.00
36092;BME280;22147;52.388;13.390;2023-02-28T06:40:34;102628.16;;;-4.76;100.00
36092;BME280;22147;52.388;13.390;2023-02-28T06:43:05;102633.03;;;-4.71;100.00
36092;BME280;22147;52.388;13.390;2023-02-28T06:45:35;102634.19;;;-4.65;100.00
36092;BME280;22147;52.388;13.390;2023-02-28T06:48:05;102635.31;;;-4.60;100.00
36092;BME280;22147;52.388;13.390;2023-02-28T06:50:36;102642.72;;;-4.54;100.00
36092;BME280;22147;52.388;13.390;2023-02-28T06:53:06;102634.91;;;-4.48;100.00
36092;BME280;22147;52.388;13.390;2023-02-28T06:55:39;102638.56;;;-4.41;100.00
36092;BME280;22147;52.388;13.390;2023-02-28T06:58:09;102638.69;;;-4.35;100.00
36092;BME280;22147;52.388;13.390;2023-02-28T07:00:51;102646.09;;;-4.28;100.00
36092;BME280;22147;52.388;13.390;2023-02-28T07:03:21;102638.06;;;-4.22;100.00
36092;BME280;22147;52.388;13.390;2023-02-28T07:05:52;102649.69;;;-4.13;100.00
36092;BME280;22147;52.388;13.390;2023-02-28T07:08:24;102649.63;;;-4.05;100.00
36092;BME280;22147;52.388;13.390;2023-02-28T07:10:56;102642.44;;;-3.98;100.00
36092;BME280;22147;52.388;13.390;2023-02-28T07:13:26;102652.19;;;-3.89;100.00
36092;BME280;22147;52.388;13.390;2023-02-28T07:16:02;102648.16;;;-3.78;100.00
36092;BME280;22147;52.388;13.390;2023-02-28T07:18:36;102652.78;;;-3.63;100.00
36092;BME280;22147;52.388;13.390;2023-02-28T07:21:09;102658.03;;;-3.47;100.00
36092;BME280;22147;52.388;13.390;2023-02-28T07:23:40;102656.63;;;-3.28;100.00
36092;BME280;22147;52.388;13.390;2023-02-28T07:26:15;102661.47;;;-3.09;100.00
36092;BME280;22147;52.388;13.390;2023-02-28T07:28:49;102658.41;;;-2.84;100.00
36092;BME280;22147;52.388;13.390;2023-02-28T07:31:19;102648.66;;;-2.57;100.00
36092;BME280;22147;52.388;13.390;2023-02-28T07:33:49;102656.25;;;-2.31;100.00
36092;BME280;22147;52.388;13.390;2023-02-28T07:36:19;102652.72;;;-2.03;100.00
36092;BME280;22147;52.388;13.390;2023-02-28T07:38:50;102657.97;;;-1.73;100.00
36092;BME280;22147;52.388;13.390;2023-02-28T07:41:21;102650.22;;;-1.41;100.00
36092;BME280;22147;52.388;13.390;2023-02-28T07:43:54;102656.88;;;-1.09;100.00
36092;BME280;22147;52.388;13.390;2023-02-28T07:46:29;102660.75;;;-0.77;100.00
36092;BME280;22147;52.388;13.390;2023-02-28T07:49:05;102659.38;;;-0.46;100.00
36092;BME280;22147;52.388;13.390;2023-02-28T07:51:35;102656.03;;;-0.15;100.00
36092;BME280;22147;52.388;13.390;2023-02-28T07:54:05;102660.66;;;0.11;100.00
36092;BME280;22147;52.388;13.390;2023-02-28T07:56:36;102655.59;;;0.42;100.00
36092;BME280;22147;52.388;13.390;2023-02-28T07:59:06;102666.91;;;0.58;100.00
36092;BME280;22147;52.388;13.390;2023-02-28T08:01:36;102663.59;;;1.01;100.00
36092;BME280;22147;52.388;13.390;2023-02-28T08:04:06;102656.34;;;1.27;96.72
36092;BME280;22147;52.388;13.390;2023-02-28T08:06:36;102656.44;;;1.46;98.07
36092;BME280;22147;52.388;13.390;2023-02-28T08:09:06;102662.53;;;1.48;97.69
36092;BME280;22147;52.388;13.390;2023-02-28T08:11:35;102661.69;;;1.79;97.41
36092;BME280;22147;52.388;13.390;2023-02-28T08:14:03;102663.97;;;2.32;87.98
36092;BME280;22147;52.388;13.390;2023-02-28T08:16:31;102674.53;;;2.35;80.80
36092;BME280;22147;52.388;13.390;2023-02-28T08:18:59;102677.66;;;2.57;72.88
36092;BME280;22147;52.388;13.390;2023-02-28T08:21:28;102672.41;;;2.56;72.29
36092;BME280;22147;52.388;13.390;2023-02-28T08:23:56;102674.22;;;2.43;76.24
36092;BME280;22147;52.388;13.390;2023-02-28T08:26:25;102672.69;;;2.48;77.44
36092;BME280;22147;52.388;13.390;2023-02-28T08:28:53;102675.75;;;2.58;77.28
36092;BME280;22147;52.388;13.390;2023-02-28T08:31:24;102677.53;;;3.08;77.45
36092;BME280;22147;52.388;13.390;2023-02-28T08:33:56;102672.97;;;3.01;78.51
36092;BME280;22147;52.388;13.390;2023-02-28T08:36:28;102676.19;;;3.29;77.08
36092;BME280;22147;52.388;13.390;2023-02-28T08:38:58;102672.97;;;3.01;80.18
36092;BME280;22147;52.388;13.390;2023-02-28T08:41:29;102681.44;;;3.30;81.52
36092;BME280;22147;52.388;13.390;2023-02-28T08:44:00;102668.06;;;3.52;79.04
36092;BME280;22147;52.388;13.390;2023-02-28T08:46:31;102683.56;;;3.46;70.78
36092;BME280;22147;52.388;13.390;2023-02-28T08:49:01;102674.50;;;3.28;75.77
36092;BME280;22147;52.388;13.390;2023-02-28T08:51:31;102684.00;;;3.74;68.86
36092;BME280;22147;52.388;13.390;2023-02-28T08:54:01;102679.28;;;3.93;69.10
36092;BME280;22147;52.388;13.390;2023-02-28T08:56:32;102677.50;;;4.10;70.25
36092;BME280;22147;52.388;13.390;2023-02-28T08:59:02;102677.41;;;4.52;66.10
36092;BME280;22147;52.388;13.390;2023-02-28T09:01:32;102682.56;;;4.60;65.93
36092;BME280;22147;52.388;13.390;2023-02-28T09:04:02;102678.16;;;4.59;65.75
36092;BME280;22147;52.388;13.390;2023-02-28T09:06:33;102678.53;;;5.03;64.17
36092;BME280;22147;52.388;13.390;2023-02-28T09:09:03;102678.44;;;5.39;60.53
36092;BME280;22147;52.388;13.390;2023-02-28T09:11:36;102680.72;;;5.59;57.05
36092;BME280;22147;52.388;13.390;2023-02-28T09:14:07;102683.97;;;5.27;56.63
36092;BME280;22147;52.388;13.390;2023-02-28T09:16:37;102679.16;;;5.34;56.92
36092;BME280;22147;52.388;13.390;2023-02-28T09:19:12;102677.97;;;5.59;58.19
36092;BME280;22147;52.388;13.390;2023-02-28T09:21:42;102680.47;;;5.89;59.69
36092;BME280;22147;52.388;13.390;2023-02-28T09:24:12;102679.28;;;5.85;59.63
36092;BME280;22147;52.388;13.390;2023-02-28T09:26:44;102682.41;;;5.88;54.22
36092;BME280;22147;52.388;13.390;2023-02-28T09:29:34;102681.16;;;6.13;52.92
36092;BME280;22147;52.388;13.390;2023-02-28T09:32:05;102690.38;;;6.36;50.36
36092;BME280;22147;52.388;13.390;2023-02-28T09:34:35;102685.03;;;5.83;53.19
36092;BME280;22147;52.388;13.390;2023-02-28T09:37:07;102679.78;;;5.82;54.90
36092;BME280;22147;52.388;13.390;2023-02-28T09:39:35;102680.34;;;5.84;54.18
36092;BME280;22147;52.388;13.390;2023-02-28T09:42:05;102684.03;;;5.44;53.84
36092;BME280;22147;52.388;13.390;2023-02-28T09:44:53;102681.03;;;5.17;54.14
36092;BME280;22147;52.388;13.390;2023-02-28T09:47:36;102679.66;;;4.90;56.41
36092;BME280;22147;52.388;13.390;2023-02-28T09:50:22;102676.28;;;5.00;56.79
36092;BME280;22147;52.388;13.390;2023-02-28T09:53:41;102682.28;;;5.38;53.67
36092;BME280;22147;52.388;13.390;2023-02-28T09:56:25;102684.31;;;5.42;53.39
36092;BME280;22147;52.388;13.390;2023-02-28T10:05:11;102679.88;;;5.01;53.33
36092;BME280;22147;52.388;13.390;2023-02-28T10:08:15;102680.69;;;5.42;51.28
36092;BME280;22147;52.388;13.390;2023-02-28T10:10:59;102676.38;;;5.91;51.29
36092;BME280;22147;52.388;13.390;2023-02-28T10:19:58;102670.44;;;6.50;50.95
36092;BME280;22147;52.388;13.390;2023-02-28T10:22:25;102676.22;;;6.88;46.54
36092;BME280;22147;52.388;13.390;2023-02-28T10:25:19;102672.16;;;6.73;45.72
36092;BME280;22147;52.388;13.390;2023-02-28T10:28:07;102672.69;;;6.53;46.98
36092;BME280;22147;52.388;13.390;2023-02-28T10:30:51;102676.06;;;6.05;49.19
36092;BME280;22147;52.388;13.390;2023-02-28T10:33:35;102681.69;;;6.27;46.36
36092;BME280;22147;52.388;13.390;2023-02-28T10:36:05;102677.78;;;6.62;46.95
36092;BME280;22147;52.388;13.390;2023-02-28T10:38:40;102682.63;;;6.71;44.99
36092;BME280;22147;52.388;13.390;2023-02-28T10:41:32;102670.34;;;6.45;45.42
36092;BME280;22147;52.388;13.390;2023-02-28T10:44:23;102666.72;;;6.40;50.80
36092;BME280;22147;52.388;13.390;2023-02-28T10:46:53;102665.34;;;6.42;50.06
36092;BME280;22147;52.388;13.390;2023-02-28T10:49:25;102666.06;;;6.93;46.36
36092;BME280;22147;52.388;13.390;2023-02-28T10:52:00;102662.91;;;7.07;47.32
36092;BME280;22147;52.388;13.390;2023-02-28T10:54:35;102667.81;;;7.00;46.97
36092;BME280;22147;52.388;13.390;2023-02-28T10:57:20;102658.28;;;6.68;48.08
36092;BME280;22147;52.388;13.390;2023-02-28T11:00:15;102660.59;;;6.77;49.44
36092;BME280;22147;52.388;13.390;2023-02-28T11:02:48;102663.66;;;6.58;47.45
36092;BME280;22147;52.388;13.390;2023-02-28T11:05:28;102659.44;;;6.34;47.18
36092;BME280;22147;52.388;13.390;2023-02-28T11:08:16;102660.34;;;6.39;49.78
36092;BME280;22147;52.388;13.390;2023-02-28T11:10:57;102653.09;;;6.16;47.16
36092;BME280;22147;52.388;13.390;2023-02-28T11:13:36;102652.34;;;6.04;49.99
36092;BME280;22147;52.388;13.390;2023-02-28T11:16:11;102650.72;;;5.74;50.47
36092;BME280;22147;52.388;13.390;2023-02-28T11:18:55;102643.63;;;6.29;49.08
36092;BME280;22147;52.388;13.390;2023-02-28T11:21:33;102634.78;;;6.27;46.73
36092;BME280;22147;52.388;13.390;2023-02-28T11:24:35;102631.53;;;5.96;50.65
36092;BME280;22147;52.388;13.390;2023-02-28T11:27:45;102634.28;;;6.13;48.41
36092;BME280;22147;52.388;13.390;2023-02-28T11:30:40;102630.38;;;5.46;51.38
36092;BME280;22147;52.388;13.390;2023-02-28T11:33:31;102616.69;;;5.68;52.58
36092;BME280;22147;52.388;13.390;2023-02-28T11:36:31;102618.84;;;5.66;50.13
36092;BME280;22147;52.388;13.390;2023-02-28T11:39:10;102622.00;;;5.58;50.54
36092;BME280;22147;52.388;13.390;2023-02-28T11:45:18;102617.41;;;4.89;51.64
36092;BME280;22147;52.388;13.390;2023-02-28T11:51:42;102627.72;;;5.23;51.16
36092;BME280;22147;52.388;13.390;2023-02-28T11:55:01;102625.66;;;4.89;50.97
36092;BME280;22147;52.388;13.390;2023-02-28T12:01:41;102615.50;;;4.78;55.09
36092;BME280;22147;52.388;13.390;2023-02-28T12:04:54;102616.81;;;4.87;52.07
36092;BME280;22147;52.388;13.390;2023-02-28T12:10:28;102616.38;;;4.79;52.47
36092;BME280;22147;52.388;13.390;2023-02-28T12:16:35;102616.50;;;4.48;52.37
36092;BME280;22147;52.388;13.390;2023-02-28T12:19:41;102617.19;;;4.67;54.58
36092;BME280;22147;52.388;13.390;2023-02-28T12:22:29;102614.22;;;4.69;53.94
36092;BME280;22147;52.388;13.390;2023-02-28T12:28:21;102612.50;;;4.80;50.65
36092;BME280;22147;52.388;13.390;2023-02-28T12:31:14;102602.06;;;4.53;53.97
36092;BME280;22147;52.388;13.390;2023-02-28T12:33:53;102607.34;;;4.43;53.16
36092;BME280;22147;52.388;13.390;2023-02-28T12:36:27;102593.19;;;4.51;53.15
36092;BME280;22147;52.388;13.390;2023-02-28T12:39:16;102596.06;;;4.56;53.27
36092;BME280;22147;52.388;13.390;2023-02-28T12:42:17;102581.59;;;5.18;50.99
36092;BME280;22147;52.388;13.390;2023-02-28T12:45:18;102583.31;;;5.07;51.31
36092;BME280;22147;52.388;13.390;2023-02-28T12:48:01;102573.59;;;4.88;50.55
36092;BME280;22147;52.388;13.390;2023-02-28T12:50:34;102572.38;;;4.43;52.61
36092;BME280;22147;52.388;13.390;2023-02-28T12:56:19;102566.47;;;4.63;53.32
36092;BME280;22147;52.388;13.390;2023-02-28T12:59:17;102552.63;;;4.58;55.38
36092;BME280;22147;52.388;13.390;2023-02-28T13:09:04;102545.44;;;4.98;51.74
36092;BME280;22147;52.388;13.390;2023-02-28T13:11:47;102530.53;;;5.27;50.20
36092;BME280;22147;52.388;13.390;2023-02-28T13:22:44;102529.09;;;4.79;52.47
36092;BME280;22147;52.388;13.390;2023-02-28T13:27:54;102529.47;;;5.45;49.94
36092;BME280;22147;52.388;13.390;2023-02-28T13:33:23;102523.47;;;5.48;54.32
36092;BME280;22147;52.388;13.390;2023-02-28T13:38:52;102531.75;;;6.21;48.86
36092;BME280;22147;52.388;13.390;2023-02-28T13:47:45;102525.06;;;5.95;49.09
36092;BME280;22147;52.388;13.390;2023-02-28T13:59:44;102516.88;;;6.66;47.70
36092;BME280;22147;52.388;13.390;2023-02-28T14:02:32;102513.03;;;6.67;46.50
36092;BME280;22147;52.388;13.390;2023-02-28T14:05:24;102502.66;;;7.07;48.16
36092;BME280;22147;52.388;13.390;2023-02-28T14:08:04;102502.50;;;7.19;46.97
36092;BME280;22147;52.388;13.390;2023-02-28T14:11:02;102508.38;;;7.27;44.81
36092;BME280;22147;52.388;13.390;2023-02-28T14:13:45;102506.06;;;6.87;46.95
36092;BME280;22147;52.388;13.390;2023-02-28T14:16:23;102500.69;;;7.02;46.84
36092;BME280;22147;52.388;13.390;2023-02-28T14:19:11;102510.13;;;7.06;46.62
36092;BME280;22147;52.388;13.390;2023-02-28T14:22:38;102512.50;;;7.20;47.97
36092;BME280;22147;52.388;13.390;2023-02-28T14:26:26;102502.97;;;7.10;46.96
36092;BME280;22147;52.388;13.390;2023-02-28T14:29:55;102495.59;;;7.16;45.76
36092;BME280;22147;52.388;13.390;2023-02-28T14:36:01;102508.66;;;8.43;42.46
36092;BME280;22147;52.388;13.390;2023-02-28T14:38:52;102502.72;;;8.29;43.53
36092;BME280;22147;52.388;13.390;2023-02-28T14:41:39;102501.72;;;8.46;41.94
36092;BME280;22147;52.388;13.390;2023-02-28T14:47:02;102504.41;;;9.24;40.21
36092;BME280;22147;52.388;13.390;2023-02-28T14:49:43;102497.50;;;9.68;39.58
36092;BME280;22147;52.388;13.390;2023-02-28T14:52:31;102499.97;;;9.79;38.95
36092;BME280;22147;52.388;13.390;2023-02-28T14:55:12;102496.66;;;9.72;38.46
36092;BME280;22147;52.388;13.390;2023-02-28T14:58:02;102493.84;;;8.90;39.45
36092;BME280;22147;52.388;13.390;2023-02-28T15:00:47;102501.56;;;8.15;43.41
36092;BME280;22147;52.388;13.390;2023-02-28T15:03:30;102501.16;;;7.21;43.89
36092;BME280;22147;52.388;13.390;2023-02-28T15:06:16;102503.78;;;7.38;43.95
36092;BME280;22147;52.388;13.390;2023-02-28T15:08:47;102491.50;;;7.56;43.68
36092;BME280;22147;52.388;13.390;2023-02-28T15:11:20;102494.38;;;7.71;41.70
36092;BME280;22147;52.388;13.390;2023-02-28T15:13:54;102489.84;;;7.23;42.20
36092;BME280;22147;52.388;13.390;2023-02-28T15:16:36;102482.88;;;6.39;45.53
36092;BME280;22147;52.388;13.390;2023-02-28T15:19:31;102476.38;;;6.06;46.38
36092;BME280;22147;52.388;13.390;2023-02-28T15:22:10;102488.19;;;6.01;47.12
36092;BME280;22147;52.388;13.390;2023-02-28T15:24:50;102477.34;;;5.61;47.12
36092;BME280;22147;52.388;13.390;2023-02-28T15:27:32;102476.03;;;5.13;51.64